createdAt,value
2018-09-21T00:00:45.252Z,0.00
2018-09-21T00:01:45.246Z,0.00
2018-09-21T00:02:45.229Z,0.00
2018-09-21T00:03:45.217Z,0.00
2018-09-21T00:04:45.233Z,0.00
2018-09-21T00:05:45.195Z,0.00
2018-09-21T00:06:45.183Z,0.00
2018-09-21T00:07:45.213Z,0.00
2018-09-21T00:08:45.163Z,0.00
2018-09-21T00:09:45.154Z,0.00
2018-09-21T00:10:45.145Z,0.00
2018-09-21T00:11:45.186Z,0.00
2018-09-21T00:12:45.158Z,0.00
2018-09-21T00:13:45.110Z,0.00
2018-09-21T00:14:45.101Z,0.00
2018-09-21T00:15:45.082Z,0.00
2018-09-21T00:16:45.074Z,0.00
2018-09-21T00:17:45.101Z,0.00
2018-09-21T00:18:45.054Z,0.00
2018-09-21T00:19:45.083Z,0.00
2018-09-21T00:20:45.031Z,0.00
2018-09-21T00:21:45.022Z,0.00
2018-09-21T00:22:45.045Z,0.00
2018-09-21T00:23:44.999Z,0.00
2018-09-21T00:24:45.019Z,0.00
2018-09-21T00:25:44.974Z,0.00
2018-09-21T00:26:44.969Z,0.00
2018-09-21T00:27:44.957Z,0.00
2018-09-21T00:28:44.945Z,0.00
2018-09-21T00:29:44.967Z,0.00
2018-09-21T00:30:44.919Z,0.00
2018-09-21T00:31:44.905Z,0.00
2018-09-21T00:32:45.520Z,0.00
2018-09-21T00:33:44.886Z,0.00
2018-09-21T00:34:44.928Z,0.00
2018-09-21T00:35:44.871Z,0.00
2018-09-21T00:36:44.861Z,0.00
2018-09-21T00:37:44.848Z,0.00
2018-09-21T00:38:44.829Z,0.00
2018-09-21T00:39:44.856Z,0.00
2018-09-21T00:40:44.809Z,0.00
2018-09-21T00:41:44.799Z,0.00
2018-09-21T00:42:44.823Z,0.00
2018-09-21T00:43:44.776Z,0.00
2018-09-21T00:44:44.772Z,0.00
2018-09-21T00:45:44.793Z,0.00
2018-09-21T00:46:44.745Z,0.00
2018-09-21T00:47:44.735Z,0.00
2018-09-21T00:48:44.760Z,0.00
2018-09-21T00:49:44.711Z,0.00
2018-09-21T00:50:44.732Z,0.00
2018-09-21T00:51:44.701Z,0.00
2018-09-21T00:52:44.692Z,0.00
2018-09-21T00:53:44.667Z,0.00
2018-09-21T00:54:44.661Z,0.00
2018-09-21T00:55:44.692Z,0.00
2018-09-21T00:56:44.632Z,0.00
2018-09-21T00:57:44.623Z,0.00
2018-09-21T00:58:44.608Z,0.00
2018-09-21T00:59:44.603Z,0.00
2018-09-21T01:00:44.625Z,0.00
2018-09-21T01:01:44.580Z,0.00
2018-09-21T01:02:44.576Z,0.00
2018-09-21T01:03:44.555Z,0.00
2018-09-21T01:04:44.546Z,0.00
2018-09-21T01:05:44.570Z,0.00
2018-09-21T01:06:44.526Z,0.00
2018-09-21T01:07:44.512Z,0.00
2018-09-21T01:08:44.502Z,0.00
2018-09-21T01:09:44.492Z,0.00
2018-09-21T01:10:44.522Z,0.00
2018-09-21T01:11:44.473Z,0.00
2018-09-21T01:12:44.475Z,0.00
2018-09-21T01:13:44.449Z,0.00
2018-09-21T01:14:44.433Z,0.00
2018-09-21T01:15:44.444Z,0.00
2018-09-21T01:16:44.441Z,0.00
2018-09-21T01:17:44.401Z,0.00
2018-09-21T01:18:44.391Z,0.00
2018-09-21T01:19:44.379Z,0.00
2018-09-21T01:20:44.368Z,0.00
2018-09-21T01:21:44.404Z,0.00
2018-09-21T01:22:44.353Z,0.00
2018-09-21T01:23:44.367Z,0.00
2018-09-21T01:24:44.325Z,0.00
2018-09-21T01:25:44.309Z,0.00
2018-09-21T01:26:44.299Z,0.00
2018-09-21T01:27:44.309Z,0.00
2018-09-21T01:28:44.293Z,0.00
2018-09-21T01:29:44.266Z,0.00
2018-09-21T01:30:44.283Z,0.00
2018-09-21T01:31:44.240Z,0.00
2018-09-21T01:32:44.244Z,0.00
2018-09-21T01:33:44.225Z,0.00
2018-09-21T01:34:44.255Z,0.00
2018-09-21T01:35:44.212Z,0.00
2018-09-21T01:36:44.188Z,0.00
2018-09-21T01:37:44.179Z,0.00
2018-09-21T01:38:44.170Z,0.00
2018-09-21T01:39:44.193Z,0.00
2018-09-21T01:40:44.143Z,0.00
2018-09-21T01:41:44.140Z,0.00
2018-09-21T01:42:44.133Z,0.00
2018-09-21T01:43:44.108Z,0.00
2018-09-21T01:44:44.184Z,0.00
2018-09-21T01:45:44.092Z,0.00
2018-09-21T01:46:44.127Z,0.00
2018-09-21T01:47:44.072Z,0.00
2018-09-21T01:48:44.065Z,0.00
2018-09-21T01:49:44.042Z,0.00
2018-09-21T01:50:44.031Z,0.00
2018-09-21T01:51:44.042Z,0.00
2018-09-21T01:52:44.012Z,0.00
2018-09-21T01:53:44.017Z,0.00
2018-09-21T01:54:43.988Z,0.00
2018-09-21T01:55:44.010Z,0.00
2018-09-21T01:56:43.967Z,0.00
2018-09-21T01:57:43.983Z,0.00
2018-09-21T01:58:43.951Z,0.00
2018-09-21T01:59:43.975Z,0.00
2018-09-21T02:00:43.920Z,0.00
2018-09-21T02:01:43.911Z,0.00
2018-09-21T02:02:43.900Z,0.00
2018-09-21T02:03:43.888Z,0.00
2018-09-21T02:04:43.917Z,0.00
2018-09-21T02:05:43.899Z,0.00
2018-09-21T02:06:43.853Z,0.00
2018-09-21T02:07:43.844Z,0.00
2018-09-21T02:08:43.897Z,0.00
2018-09-21T02:09:43.857Z,0.00
2018-09-21T02:10:43.841Z,0.00
2018-09-21T02:11:43.798Z,0.00
2018-09-21T02:12:43.824Z,0.00
2018-09-21T02:13:43.778Z,0.00
2018-09-21T02:14:43.765Z,0.00
2018-09-21T02:15:43.754Z,0.00
2018-09-21T02:16:43.744Z,0.00
2018-09-21T02:17:43.788Z,0.00
2018-09-21T02:18:43.718Z,0.00
2018-09-21T02:19:43.741Z,0.00
2018-09-21T02:20:43.704Z,0.00
2018-09-21T02:21:43.692Z,0.00
2018-09-21T02:22:43.715Z,0.00
2018-09-21T02:23:43.698Z,0.00
2018-09-21T02:24:43.740Z,0.00
2018-09-21T02:25:43.641Z,0.00
2018-09-21T02:26:43.629Z,0.00
2018-09-21T02:27:43.643Z,0.00
2018-09-21T02:28:43.636Z,0.00
2018-09-21T02:29:43.642Z,0.00
2018-09-21T02:30:43.629Z,0.00
2018-09-21T02:31:43.581Z,0.00
2018-09-21T02:32:43.565Z,0.00
2018-09-21T02:33:43.558Z,0.00
2018-09-21T02:34:43.546Z,0.00
2018-09-21T02:35:43.562Z,0.00
2018-09-21T02:36:43.527Z,0.00
2018-09-21T02:37:43.513Z,0.00
2018-09-21T02:38:43.530Z,0.00
2018-09-21T02:39:43.488Z,0.00
2018-09-21T02:40:43.486Z,0.00
2018-09-21T02:41:43.469Z,0.00
2018-09-21T02:42:43.454Z,0.00
2018-09-21T02:43:43.476Z,0.00
2018-09-21T02:44:43.441Z,0.00
2018-09-21T02:45:43.455Z,0.00
2018-09-21T02:46:43.412Z,0.00
2018-09-21T02:47:43.403Z,0.00
2018-09-21T02:48:43.525Z,0.00
2018-09-21T02:49:43.410Z,0.00
2018-09-21T02:50:43.378Z,0.00
2018-09-21T02:51:43.359Z,0.00
2018-09-21T02:52:43.343Z,0.00
2018-09-21T02:53:43.333Z,0.00
2018-09-21T02:54:43.362Z,0.00
2018-09-21T02:55:43.313Z,0.00
2018-09-21T02:56:43.327Z,0.00
2018-09-21T02:57:43.294Z,0.00
2018-09-21T02:58:43.281Z,0.00
2018-09-21T02:59:43.305Z,0.00
2018-09-21T03:00:43.422Z,0.00
2018-09-21T03:01:43.250Z,0.00
2018-09-21T03:02:43.235Z,0.00
2018-09-21T03:03:43.224Z,0.00
2018-09-21T03:04:43.348Z,0.00
2018-09-21T03:05:43.204Z,0.00
2018-09-21T03:06:43.203Z,0.00
2018-09-21T03:07:43.224Z,0.00
2018-09-21T03:08:43.172Z,0.00
2018-09-21T03:09:43.156Z,0.00
2018-09-21T03:10:43.145Z,0.00
2018-09-21T03:11:43.247Z,0.00
2018-09-21T03:12:43.125Z,0.00
2018-09-21T03:13:43.113Z,0.00
2018-09-21T03:14:43.103Z,0.00
2018-09-21T03:15:43.150Z,0.00
2018-09-21T03:16:43.080Z,0.00
2018-09-21T03:17:43.081Z,0.00
2018-09-21T03:18:43.073Z,0.00
2018-09-21T03:19:43.046Z,0.00
2018-09-21T03:20:43.136Z,0.00
2018-09-21T03:21:43.027Z,0.00
2018-09-21T03:22:43.015Z,0.00
2018-09-21T03:23:43.003Z,0.00
2018-09-21T03:24:43.070Z,0.00
2018-09-21T03:25:42.981Z,0.00
2018-09-21T03:26:43.015Z,0.00
2018-09-21T03:27:42.960Z,0.00
2018-09-21T03:28:42.961Z,0.00
2018-09-21T03:29:42.943Z,0.00
2018-09-21T03:30:42.963Z,0.00
2018-09-21T03:31:42.913Z,0.00
2018-09-21T03:32:42.909Z,0.00
2018-09-21T03:33:42.904Z,0.00
2018-09-21T03:34:42.881Z,0.00
2018-09-21T03:35:42.937Z,0.00
2018-09-21T03:36:42.925Z,0.00
2018-09-21T03:37:42.854Z,0.00
2018-09-21T03:38:42.839Z,0.00
2018-09-21T03:39:42.835Z,0.00
2018-09-21T03:40:42.866Z,0.00
2018-09-21T03:41:42.815Z,0.00
2018-09-21T03:42:42.795Z,0.00
2018-09-21T03:43:42.860Z,0.00
2018-09-21T03:44:42.826Z,0.00
2018-09-21T03:45:42.835Z,0.00
2018-09-21T03:46:42.751Z,0.00
2018-09-21T03:47:42.867Z,0.00
2018-09-21T03:48:42.726Z,0.00
2018-09-21T03:49:49.774Z,0.00
2018-09-21T03:50:42.709Z,0.00
2018-09-21T03:51:42.699Z,0.00
2018-09-21T03:52:42.731Z,0.00
2018-09-21T03:53:42.722Z,0.00
2018-09-21T03:54:42.659Z,0.00
2018-09-21T03:55:42.654Z,0.00
2018-09-21T03:56:42.703Z,0.00
2018-09-21T03:57:42.633Z,0.00
2018-09-21T03:58:42.729Z,0.00
2018-09-21T03:59:42.611Z,0.00
2018-09-21T04:00:43.590Z,0.00
2018-09-21T04:01:42.636Z,0.00
2018-09-21T04:02:42.573Z,0.00
2018-09-21T04:03:42.566Z,0.00
2018-09-21T04:04:42.685Z,0.00
2018-09-21T04:05:42.549Z,0.00
2018-09-21T04:06:42.538Z,0.00
2018-09-21T04:07:42.517Z,0.00
2018-09-21T04:08:42.513Z,0.00
2018-09-21T04:09:42.567Z,0.00
2018-09-21T04:10:42.483Z,0.00
2018-09-21T04:11:42.478Z,0.00
2018-09-21T04:12:42.469Z,0.00
2018-09-21T04:13:42.456Z,0.00
2018-09-21T04:14:42.474Z,0.00
2018-09-21T04:15:42.447Z,0.00
2018-09-21T04:16:42.540Z,0.00
2018-09-21T04:17:42.416Z,0.00
2018-09-21T04:18:42.400Z,0.00
2018-09-21T04:19:42.417Z,0.00
2018-09-21T04:20:42.423Z,0.00
2018-09-21T04:21:42.373Z,0.00
2018-09-21T04:22:42.361Z,0.00
2018-09-21T04:23:42.341Z,0.00
2018-09-21T04:24:42.332Z,0.00
2018-09-21T04:25:42.387Z,0.00
2018-09-21T04:26:42.313Z,0.00
2018-09-21T04:27:42.352Z,0.00
2018-09-21T04:28:42.290Z,0.00
2018-09-21T04:29:42.411Z,0.00
2018-09-21T04:30:42.266Z,0.00
2018-09-21T04:31:42.259Z,0.00
2018-09-21T04:32:42.252Z,0.00
2018-09-21T04:33:42.246Z,0.00
2018-09-21T04:34:42.291Z,0.00
2018-09-21T04:35:42.221Z,0.00
2018-09-21T04:36:42.202Z,0.00
2018-09-21T04:37:42.195Z,0.00
2018-09-21T04:38:42.192Z,0.00
2018-09-21T04:39:42.236Z,0.00
2018-09-21T04:40:42.172Z,0.00
2018-09-21T04:41:42.166Z,0.00
2018-09-21T04:42:42.196Z,0.00
2018-09-21T04:43:42.130Z,0.00
2018-09-21T04:44:42.118Z,0.00
2018-09-21T04:45:42.157Z,0.00
2018-09-21T04:46:42.097Z,0.00
2018-09-21T04:47:42.146Z,0.00
2018-09-21T04:48:42.082Z,0.00
2018-09-21T04:49:42.071Z,0.00
2018-09-21T04:50:42.110Z,0.00
2018-09-21T04:51:42.040Z,0.00
2018-09-21T04:52:42.023Z,0.00
2018-09-21T04:53:42.020Z,0.00
2018-09-21T04:54:42.002Z,0.00
2018-09-21T04:55:42.146Z,0.00
2018-09-21T04:56:42.004Z,4.00
2018-09-21T04:57:41.968Z,4.00
2018-09-21T04:58:41.967Z,4.00
2018-09-21T04:59:42.108Z,0.00
2018-09-21T05:00:41.943Z,4.00
2018-09-21T05:01:41.927Z,4.00
2018-09-21T05:02:41.930Z,4.00
2018-09-21T05:03:41.911Z,4.00
2018-09-21T05:04:41.975Z,4.00
2018-09-21T05:05:41.891Z,8.00
2018-09-21T05:06:41.972Z,8.00
2018-09-21T05:07:41.868Z,8.00
2018-09-21T05:08:41.853Z,8.00
2018-09-21T05:09:41.898Z,12.00
2018-09-21T05:10:41.871Z,12.00
2018-09-21T05:11:41.822Z,12.00
2018-09-21T05:12:41.905Z,16.00
2018-09-21T05:13:41.845Z,20.00
2018-09-21T05:14:41.782Z,20.00
2018-09-21T05:15:41.826Z,20.00
2018-09-21T05:16:41.766Z,24.00
2018-09-21T05:17:41.749Z,24.00
2018-09-21T05:18:41.748Z,20.00
2018-09-21T05:19:41.750Z,20.00
2018-09-21T05:20:41.828Z,20.00
2018-09-21T05:21:41.709Z,24.00
2018-09-21T05:22:41.872Z,24.00
2018-09-21T05:23:41.686Z,24.00
2018-09-21T05:24:41.728Z,28.00
2018-09-21T05:25:41.679Z,36.00
2018-09-21T05:26:41.718Z,44.00
2018-09-21T05:27:41.768Z,44.00
2018-09-21T05:28:41.667Z,44.00
2018-09-21T05:29:41.617Z,48.00
2018-09-21T05:30:41.612Z,52.00
2018-09-21T05:31:41.764Z,56.00
2018-09-21T05:32:41.596Z,72.00
2018-09-21T05:33:41.576Z,84.00
2018-09-21T05:34:41.727Z,104.00
2018-09-21T05:35:41.548Z,120.00
2018-09-21T05:36:41.695Z,132.00
2018-09-21T05:37:41.537Z,148.00
2018-09-21T05:38:41.529Z,172.00
2018-09-21T05:39:41.877Z,200.00
2018-09-21T05:40:41.502Z,240.00
2018-09-21T05:41:41.487Z,280.00
2018-09-21T05:42:41.480Z,296.00
2018-09-21T05:43:41.464Z,288.00
2018-09-21T05:44:41.492Z,280.00
2018-09-21T05:45:41.495Z,288.00
2018-09-21T05:46:41.435Z,292.00
2018-09-21T05:47:41.428Z,296.00
2018-09-21T05:48:41.428Z,308.00
2018-09-21T05:49:41.402Z,316.00
2018-09-21T05:50:41.578Z,320.00
2018-09-21T05:51:41.375Z,324.00
2018-09-21T05:52:41.476Z,320.00
2018-09-21T05:53:41.362Z,328.00
2018-09-21T05:54:41.428Z,336.00
2018-09-21T05:55:41.334Z,344.00
2018-09-21T05:56:41.322Z,344.00
2018-09-21T05:57:41.317Z,332.00
2018-09-21T05:58:41.306Z,320.00
2018-09-21T05:59:41.348Z,312.00
2018-09-21T06:00:41.290Z,308.00
2018-09-21T06:01:41.311Z,312.00
2018-09-21T06:02:41.267Z,320.00
2018-09-21T06:03:41.349Z,304.00
2018-09-21T06:04:41.297Z,284.00
2018-09-21T06:05:41.235Z,252.00
2018-09-21T06:06:41.209Z,248.00
2018-09-21T06:07:41.247Z,260.00
2018-09-21T06:08:41.247Z,288.00
2018-09-21T06:09:41.184Z,312.00
2018-09-21T06:10:41.172Z,344.00
2018-09-21T06:11:41.160Z,372.00
2018-09-21T06:12:41.217Z,384.00
2018-09-21T06:13:41.196Z,404.00
2018-09-21T06:14:41.126Z,416.00
2018-09-21T06:15:41.117Z,412.00
2018-09-21T06:16:41.148Z,448.00
2018-09-21T06:17:41.089Z,532.00
2018-09-21T06:18:41.145Z,608.00
2018-09-21T06:19:41.068Z,668.00
2018-09-21T06:20:41.060Z,708.00
2018-09-21T06:21:41.050Z,820.00
2018-09-21T06:22:45.104Z,828.00
2018-09-21T06:23:41.027Z,680.00
2018-09-21T06:24:41.147Z,512.00
2018-09-21T06:25:41.002Z,376.00
2018-09-21T06:26:40.993Z,316.00
2018-09-21T06:27:41.000Z,344.00
2018-09-21T06:28:40.980Z,396.00
2018-09-21T06:29:40.998Z,440.00
2018-09-21T06:30:40.946Z,484.00
2018-09-21T06:31:40.937Z,556.00
2018-09-21T06:32:40.960Z,592.00
2018-09-21T06:33:40.916Z,604.00
2018-09-21T06:34:40.950Z,656.00
2018-09-21T06:35:40.895Z,696.00
2018-09-21T06:36:40.886Z,636.00
2018-09-21T06:37:40.877Z,548.00
2018-09-21T06:38:40.868Z,488.00
2018-09-21T06:39:40.938Z,460.00
2018-09-21T06:40:40.835Z,416.00
2018-09-21T06:41:40.825Z,368.00
2018-09-21T06:42:40.835Z,312.00
2018-09-21T06:43:40.811Z,276.00
2018-09-21T06:44:40.858Z,276.00
2018-09-21T06:45:40.793Z,344.00
2018-09-21T06:46:40.771Z,392.00
2018-09-21T06:47:40.765Z,408.00
2018-09-21T06:48:40.763Z,420.00
2018-09-21T06:49:40.856Z,400.00
2018-09-21T06:50:40.731Z,352.00
2018-09-21T06:51:40.932Z,320.00
2018-09-21T06:52:40.707Z,316.00
2018-09-21T06:53:40.690Z,336.00
2018-09-21T06:54:40.683Z,380.00
2018-09-21T06:55:40.682Z,440.00
2018-09-21T06:56:40.800Z,484.00
2018-09-21T06:57:40.698Z,532.00
2018-09-21T06:58:40.637Z,536.00
2018-09-21T06:59:40.632Z,544.00
2018-09-21T07:00:40.613Z,552.00
2018-09-21T07:01:40.623Z,556.00
2018-09-21T07:02:40.878Z,568.00
2018-09-21T07:03:40.590Z,620.00
2018-09-21T07:04:40.660Z,664.00
2018-09-21T07:05:40.563Z,696.00
2018-09-21T07:06:40.557Z,748.00
2018-09-21T07:07:40.541Z,764.00
2018-09-21T07:08:40.537Z,740.00
2018-09-21T07:09:40.617Z,736.00
2018-09-21T07:10:40.779Z,768.00
2018-09-21T07:11:40.503Z,744.00
2018-09-21T07:12:40.562Z,732.00
2018-09-21T07:13:40.475Z,712.00
2018-09-21T07:14:40.465Z,692.00
2018-09-21T07:15:40.592Z,632.00
2018-09-21T07:16:40.454Z,660.00
2018-09-21T07:17:40.505Z,656.00
2018-09-21T07:18:40.459Z,652.00
2018-09-21T07:19:40.408Z,640.00
2018-09-21T07:20:40.403Z,664.00
2018-09-21T07:21:40.525Z,728.00
2018-09-21T07:22:40.374Z,804.00
2018-09-21T07:23:40.361Z,900.00
2018-09-21T07:24:40.358Z,1000.00
2018-09-21T07:25:40.345Z,1140.00
2018-09-21T07:26:40.521Z,1236.00
2018-09-21T07:27:40.320Z,1340.00
2018-09-21T07:28:40.438Z,1152.00
2018-09-21T07:29:40.312Z,864.00
2018-09-21T07:30:40.298Z,480.00
2018-09-21T07:31:40.282Z,436.00
2018-09-21T07:32:40.513Z,436.00
2018-09-21T07:33:40.257Z,632.00
2018-09-21T07:34:40.263Z,640.00
2018-09-21T07:35:40.232Z,588.00
2018-09-21T07:36:40.220Z,616.00
2018-09-21T07:37:40.411Z,704.00
2018-09-21T07:38:40.200Z,724.00
2018-09-21T07:39:40.193Z,1008.00
2018-09-21T07:40:40.178Z,984.00
2018-09-21T07:41:40.170Z,1056.00
2018-09-21T07:42:40.253Z,1036.00
2018-09-21T07:43:40.144Z,1036.00
2018-09-21T07:44:40.243Z,1260.00
2018-09-21T07:45:40.124Z,1208.00
2018-09-21T07:46:40.305Z,1224.00
2018-09-21T07:47:40.108Z,1068.00
2018-09-21T07:48:40.099Z,1060.00
2018-09-21T07:49:40.079Z,1140.00
2018-09-21T07:50:40.137Z,1144.00
2018-09-21T07:51:40.137Z,1008.00
2018-09-21T07:52:40.106Z,1364.00
2018-09-21T07:53:40.047Z,1472.00
2018-09-21T07:54:40.028Z,1108.00
2018-09-21T07:55:40.015Z,1140.00
2018-09-21T07:56:40.243Z,1688.00
2018-09-21T07:57:40.000Z,972.00
2018-09-21T07:58:39.982Z,820.00
2018-09-21T07:59:40.062Z,672.00
2018-09-21T08:00:39.969Z,644.00
2018-09-21T08:01:39.951Z,1012.00
2018-09-21T08:02:39.936Z,664.00
2018-09-21T08:03:39.927Z,760.00
2018-09-21T08:04:40.082Z,636.00
2018-09-21T08:05:39.909Z,764.00
2018-09-21T08:06:39.897Z,572.00
2018-09-21T08:07:39.882Z,628.00
2018-09-21T08:08:39.939Z,708.00
2018-09-21T08:09:40.011Z,492.00
2018-09-21T08:10:39.851Z,436.00
2018-09-21T08:11:39.843Z,628.00
2018-09-21T08:12:39.855Z,640.00
2018-09-21T08:13:39.859Z,500.00
2018-09-21T08:14:39.818Z,800.00
2018-09-21T08:15:39.798Z,752.00
2018-09-21T08:16:39.788Z,668.00
2018-09-21T08:17:40.076Z,720.00
2018-09-21T08:18:39.765Z,848.00
2018-09-21T08:19:39.757Z,556.00
2018-09-21T08:20:39.742Z,404.00
2018-09-21T08:21:39.730Z,364.00
2018-09-21T08:22:39.936Z,400.00
2018-09-21T08:23:39.707Z,384.00
2018-09-21T08:24:39.704Z,496.00
2018-09-21T08:25:39.689Z,516.00
2018-09-21T08:26:39.758Z,584.00
2018-09-21T08:27:39.712Z,540.00
2018-09-21T08:28:39.695Z,456.00
2018-09-21T08:29:39.654Z,452.00
2018-09-21T08:30:39.642Z,448.00
2018-09-21T08:31:39.625Z,400.00
2018-09-21T08:32:39.811Z,400.00
2018-09-21T08:33:39.604Z,328.00
2018-09-21T08:34:39.777Z,348.00
2018-09-21T08:35:39.591Z,308.00
2018-09-21T08:36:39.580Z,264.00
2018-09-21T08:37:39.557Z,216.00
2018-09-21T08:38:39.545Z,152.00
2018-09-21T08:39:39.672Z,472.00
2018-09-21T08:40:39.527Z,896.00
2018-09-21T08:41:39.519Z,772.00
2018-09-21T08:42:39.515Z,780.00
2018-09-21T08:43:39.610Z,648.00
2018-09-21T08:44:39.530Z,824.00
2018-09-21T08:45:39.526Z,1004.00
2018-09-21T08:46:39.631Z,1360.00
2018-09-21T08:47:39.452Z,1308.00
2018-09-21T08:48:39.439Z,1276.00
2018-09-21T08:49:39.430Z,1148.00
2018-09-21T08:50:39.409Z,1084.00
2018-09-21T08:51:39.642Z,932.00
2018-09-21T08:52:39.386Z,824.00
2018-09-21T08:53:39.378Z,828.00
2018-09-21T08:54:39.459Z,952.00
2018-09-21T08:55:39.359Z,1032.00
2018-09-21T08:56:39.341Z,1080.00
2018-09-21T08:57:39.337Z,1256.00
2018-09-21T08:58:39.551Z,1940.00
2018-09-21T08:59:39.312Z,2328.00
2018-09-21T09:00:39.304Z,2324.00
2018-09-21T09:01:39.292Z,1692.00
2018-09-21T09:02:39.281Z,1292.00
2018-09-21T09:03:39.460Z,1332.00
2018-09-21T09:04:39.258Z,1364.00
2018-09-21T09:05:39.242Z,1368.00
2018-09-21T09:06:39.239Z,1352.00
2018-09-21T09:07:39.221Z,1328.00
2018-09-21T09:08:39.324Z,1268.00
2018-09-21T09:09:39.490Z,1164.00
2018-09-21T09:10:39.193Z,1188.00
2018-09-21T09:11:39.182Z,1292.00
2018-09-21T09:12:39.172Z,1372.00
2018-09-21T09:13:39.157Z,1212.00
2018-09-21T09:14:39.244Z,1144.00
2018-09-21T09:15:39.224Z,1160.00
2018-09-21T09:16:39.128Z,1264.00
2018-09-21T09:17:39.137Z,1312.00
2018-09-21T09:18:39.106Z,1480.00
2018-09-21T09:19:39.167Z,1576.00
2018-09-21T09:20:39.082Z,1596.00
2018-09-21T09:21:39.080Z,1584.00
2018-09-21T09:22:39.055Z,1448.00
2018-09-21T09:23:39.130Z,1700.00
2018-09-21T09:24:39.084Z,2224.00
2018-09-21T09:25:39.028Z,2424.00
2018-09-21T09:26:39.014Z,2480.00
2018-09-21T09:27:39.006Z,2472.00
2018-09-21T09:28:39.058Z,2340.00
2018-09-21T09:29:38.976Z,1976.00
2018-09-21T09:30:38.963Z,1784.00
2018-09-21T09:31:38.958Z,1704.00
2018-09-21T09:32:38.942Z,1500.00
2018-09-21T09:33:39.060Z,1556.00
2018-09-21T09:34:39.023Z,1488.00
2018-09-21T09:35:39.055Z,1700.00
2018-09-21T09:36:38.901Z,1888.00
2018-09-21T09:37:38.889Z,2092.00
2018-09-21T09:38:39.683Z,1828.00
2018-09-21T09:39:38.997Z,1552.00
2018-09-21T09:40:38.853Z,1996.00
2018-09-21T09:41:38.845Z,1992.00
2018-09-21T09:42:39.107Z,1808.00
2018-09-21T09:43:38.821Z,2000.00
2018-09-21T09:44:38.809Z,1936.00
2018-09-21T09:45:38.898Z,1784.00
2018-09-21T09:46:38.792Z,1580.00
2018-09-21T09:47:38.919Z,1716.00
2018-09-21T09:48:38.872Z,1724.00
2018-09-21T09:49:38.755Z,1736.00
2018-09-21T09:50:45.791Z,1864.00
2018-09-21T09:51:38.729Z,2012.00
2018-09-21T09:52:38.972Z,2040.00
2018-09-21T09:53:38.719Z,2040.00
2018-09-21T09:54:38.761Z,2100.00
2018-09-21T09:55:38.689Z,1740.00
2018-09-21T09:56:38.720Z,1668.00
2018-09-21T09:57:38.672Z,1856.00
2018-09-21T09:58:38.659Z,2068.00
2018-09-21T09:59:38.650Z,2028.00
2018-09-21T10:00:38.644Z,2120.00
2018-09-21T10:01:38.670Z,1884.00
2018-09-21T10:02:38.616Z,1840.00
2018-09-21T10:03:38.677Z,2108.00
2018-09-21T10:04:38.620Z,2176.00
2018-09-21T10:05:38.580Z,2056.00
2018-09-21T10:06:38.577Z,2048.00
2018-09-21T10:07:38.592Z,2148.00
2018-09-21T10:08:38.554Z,2428.00
2018-09-21T10:09:38.569Z,2496.00
2018-09-21T10:10:38.579Z,2272.00
2018-09-21T10:11:38.516Z,2536.00
2018-09-21T10:12:38.546Z,3672.00
2018-09-21T10:13:38.498Z,3236.00
2018-09-21T10:14:38.479Z,2572.00
2018-09-21T10:15:38.474Z,2240.00
2018-09-21T10:16:38.462Z,2572.00
2018-09-21T10:17:38.499Z,3424.00
2018-09-21T10:18:38.435Z,3884.00
2018-09-21T10:19:38.426Z,4432.00
2018-09-21T10:20:38.463Z,3956.00
2018-09-21T10:21:38.402Z,3856.00
2018-09-21T10:22:38.444Z,3680.00
2018-09-21T10:23:38.393Z,3708.00
2018-09-21T10:24:38.416Z,3408.00
2018-09-21T10:25:38.357Z,3248.00
2018-09-21T10:26:38.425Z,3284.00
2018-09-21T10:27:38.508Z,3020.00
2018-09-21T10:28:38.545Z,2756.00
2018-09-21T10:29:38.343Z,2672.00
2018-09-21T10:30:38.310Z,2380.00
2018-09-21T10:31:38.425Z,2956.00
2018-09-21T10:32:38.317Z,3048.00
2018-09-21T10:33:38.362Z,3128.00
2018-09-21T10:34:38.351Z,3424.00
2018-09-21T10:35:38.269Z,4140.00
2018-09-21T10:36:38.248Z,4920.00
2018-09-21T10:37:38.236Z,4024.00
2018-09-21T10:38:38.265Z,3596.00
2018-09-21T10:39:38.232Z,3444.00
2018-09-21T10:40:38.193Z,3648.00
2018-09-21T10:41:38.176Z,4124.00
2018-09-21T10:42:38.378Z,4200.00
2018-09-21T10:43:38.161Z,3816.00
2018-09-21T10:44:38.170Z,3684.00
2018-09-21T10:45:38.132Z,4144.00
2018-09-21T10:46:38.130Z,4112.00
2018-09-21T10:48:15.811Z,4280.00
2018-09-21T10:48:39.752Z,4656.00
2018-09-21T10:49:38.126Z,4348.00
2018-09-21T10:50:38.209Z,4680.00
2018-09-21T10:51:38.107Z,3620.00
2018-09-21T10:52:38.156Z,2652.00
2018-09-21T10:53:38.121Z,3156.00
2018-09-21T10:54:38.105Z,3988.00
2018-09-21T10:55:38.064Z,4588.00
2018-09-21T10:56:38.045Z,3984.00
2018-09-21T10:57:38.012Z,3944.00
2018-09-21T10:58:37.995Z,3052.00
2018-09-21T10:59:37.989Z,4740.00
2018-09-21T11:00:38.049Z,4196.00
2018-09-21T11:01:37.960Z,2868.00
2018-09-21T11:02:37.984Z,4196.00
2018-09-21T11:03:37.940Z,7128.00
2018-09-21T11:04:37.923Z,7960.00
2018-09-21T11:05:37.921Z,7520.00
2018-09-21T11:06:38.009Z,7000.00
2018-09-21T11:07:37.894Z,5776.00
2018-09-21T11:08:37.881Z,7204.00
2018-09-21T11:09:37.879Z,6624.00
2018-09-21T11:10:37.860Z,4264.00
2018-09-21T11:11:37.879Z,3348.00
2018-09-21T11:12:37.899Z,3844.00
2018-09-21T11:13:37.826Z,3764.00
2018-09-21T11:14:37.815Z,4312.00
2018-09-21T11:15:37.807Z,4932.00
2018-09-21T11:16:37.792Z,4112.00
2018-09-21T11:17:37.848Z,3840.00
2018-09-21T11:18:37.767Z,3796.00
2018-09-21T11:19:37.763Z,3196.00
2018-09-21T11:20:37.757Z,2848.00
2018-09-21T11:21:37.735Z,3404.00
2018-09-21T11:22:37.871Z,3956.00
2018-09-21T11:23:37.718Z,4064.00
2018-09-21T11:24:37.702Z,4788.00
2018-09-21T11:25:37.691Z,6308.00
2018-09-21T11:26:37.692Z,7216.00
2018-09-21T11:27:37.741Z,6780.00
2018-09-21T11:28:37.659Z,6160.00
2018-09-21T11:29:37.652Z,6340.00
2018-09-21T11:30:37.687Z,6348.00
2018-09-21T11:31:37.667Z,6084.00
2018-09-21T11:32:37.614Z,5996.00
2018-09-21T11:33:37.605Z,5840.00
2018-09-21T11:34:37.589Z,5844.00
2018-09-21T11:35:37.613Z,5916.00
2018-09-21T11:36:37.575Z,6016.00
2018-09-21T11:37:37.590Z,5876.00
2018-09-21T11:38:37.542Z,5684.00
2018-09-21T11:39:37.529Z,5864.00
2018-09-21T11:40:37.528Z,6324.00
2018-09-21T11:41:37.515Z,6124.00
2018-09-21T11:42:37.528Z,6272.00
2018-09-21T11:43:37.490Z,6032.00
2018-09-21T11:44:37.518Z,6200.00
2018-09-21T11:45:37.503Z,6476.00
2018-09-21T11:46:37.595Z,6408.00
2018-09-21T11:47:37.588Z,6228.00
2018-09-21T11:48:37.483Z,5084.00
2018-09-21T11:49:37.426Z,5096.00
2018-09-21T11:50:37.414Z,4388.00
2018-09-21T11:51:37.416Z,5592.00
2018-09-21T11:52:37.435Z,5076.00
2018-09-21T11:53:37.374Z,5640.00
2018-09-21T11:54:37.372Z,5976.00
2018-09-21T11:55:37.356Z,5084.00
2018-09-21T11:56:37.358Z,4228.00
2018-09-21T11:57:37.384Z,4100.00
2018-09-21T11:58:37.332Z,4440.00
2018-09-21T11:59:37.322Z,4192.00
2018-09-21T12:00:37.303Z,3380.00
2018-09-21T12:01:37.303Z,3160.00
2018-09-21T12:02:37.385Z,3288.00
2018-09-21T12:03:37.278Z,3736.00
2018-09-21T12:04:37.259Z,2556.00
2018-09-21T12:05:37.672Z,2548.00
2018-09-21T12:06:37.234Z,2536.00
2018-09-21T12:07:37.228Z,1764.00
2018-09-21T12:08:37.218Z,1376.00
2018-09-21T12:09:37.228Z,1668.00
2018-09-21T12:10:37.286Z,1828.00
2018-09-21T12:11:37.183Z,2176.00
2018-09-21T12:12:37.168Z,2292.00
2018-09-21T12:13:37.183Z,2528.00
2018-09-21T12:14:37.140Z,2356.00
2018-09-21T12:15:37.140Z,2372.00
2018-09-21T12:16:37.160Z,2304.00
2018-09-21T12:17:37.150Z,2308.00
2018-09-21T12:18:37.132Z,1808.00
2018-09-21T12:19:37.090Z,1860.00
2018-09-21T12:20:37.074Z,1928.00
2018-09-21T12:21:37.067Z,2332.00
2018-09-21T12:22:37.090Z,2720.00
2018-09-21T12:23:37.074Z,2956.00
2018-09-21T12:24:37.037Z,2848.00
2018-09-21T12:25:37.051Z,3184.00
2018-09-21T12:26:37.085Z,3036.00
2018-09-21T12:27:36.997Z,3716.00
2018-09-21T12:28:36.997Z,3384.00
2018-09-21T12:29:37.080Z,2768.00
2018-09-21T12:30:37.010Z,2716.00
2018-09-21T12:31:36.958Z,2808.00
2018-09-21T12:32:36.944Z,2504.00
2018-09-21T12:33:36.935Z,2116.00
2018-09-21T12:34:36.959Z,3104.00
2018-09-21T12:35:36.918Z,3464.00
2018-09-21T12:36:36.897Z,3688.00
2018-09-21T12:37:36.887Z,3960.00
2018-09-21T12:38:36.914Z,3904.00
2018-09-21T12:39:36.901Z,3752.00
2018-09-21T12:40:36.854Z,3936.00